Marseillais 6 — FQSJ — position and weather

sailwx.info

Track history (hours):
 
Tides and Currents Weather Stations Pressure Air Temp Water Temp Dewpoint Dewpoint Depression Visibility Wind Speed Wind Dir Waves Ship Positions

Marseillais 6

Last reported at 2015-Aug-01 11:33 UTC. Time now 2015-Aug-01 11:53 UTC.
Position N 43°26' E 004°54'.

Length 35 m; draft 5 m.

Type: Tug. MMSI: 227016900.

Date/timePositionNaut miles runAvg speedWind from/ knotsBaromVisibWave heightAir tempDewpointWater temp
2015-Aug-01 11:33N 43°26' E 004°54'0 0.0
2015-Aug-01 10:33N 43°26' E 004°54'0 0.0
2015-Aug-01 09:33N 43°26' E 004°54'1 0.6
2015-Aug-01 08:34N 43°25' E 004°53'3 3.4
2015-Aug-01 07:34N 43°23' E 004°49'4 4.1
2015-Aug-01 06:33N 43°24' E 004°55'2 2.2
2015-Aug-01 05:33N 43°26' E 004°54'0 0.0
2015-Aug-01 04:33N 43°26' E 004°54'0 0.0
2015-Aug-01 03:34N 43°26' E 004°54'1 0.8
2015-Aug-01 02:34N 43°25' E 004°53'1 0.8
2015-Aug-01 01:33N 43°26' E 004°54'0 0.0
2015-Aug-01 00:33N 43°26' E 004°54'0 0.0
2015-Jul-31 23:33N 43°26' E 004°54'0 0.1
2015-Jul-31 22:34N 43°26' E 004°54'0 0.0
2015-Jul-31 21:33N 43°26' E 004°54'0 0.0
2015-Jul-31 20:33N 43°26' E 004°54'0 0.0
2015-Jul-31 19:34N 43°26' E 004°54'0 0.0
2015-Jul-31 18:33N 43°26' E 004°54'0 0.3
2015-Jul-31 17:34N 43°25' E 004°54'5 5.4
2015-Jul-31 16:33N 43°24' E 005°01'3 2.8
2015-Jul-31 15:34N 43°24' E 004°57'3 3.1
2015-Jul-31 14:33N 43°26' E 004°54'0 0.0
2015-Jul-31 13:33N 43°26' E 004°54'0 0.0
2015-Jul-31 12:33N 43°26' E 004°54'0 0.0
2015-Jul-31 11:33N 43°26' E 004°54'0 0.0
2015-Jul-31 10:33N 43°26' E 004°54'0 0.0
2015-Jul-31 09:34N 43°26' E 004°54'0 0.0
2015-Jul-31 08:33N 43°26' E 004°54'0 0.0
2015-Jul-31 07:34N 43°26' E 004°54'0 0.0
2015-Jul-31 06:34N 43°26' E 004°54'0 0.0
2015-Jul-31 05:33N 43°26' E 004°54'0 0.0
2015-Jul-31 04:34N 43°26' E 004°54'0 0.0
2015-Jul-31 03:34N 43°26' E 004°54'0 0.4
2015-Jul-31 02:33N 43°26' E 004°53'0 0.4
2015-Jul-31 01:33N 43°26' E 004°54'0 0.0
2015-Jul-31 00:34N 43°26' E 004°54'0 0.0
2015-Jul-30 23:33N 43°26' E 004°54'0 0.0
2015-Jul-30 22:34N 43°26' E 004°54'0 0.0
2015-Jul-30 21:34N 43°26' E 004°54'2 2.4
2015-Jul-30 20:33N 43°25' E 004°51'2 2.4
2015-Jul-30 19:33N 43°26' E 004°54'0 0.0
2015-Jul-30 18:33N 43°26' E 004°54'1 0.6
2015-Jul-30 17:33N 43°25' E 004°53'2 2.3
2015-Jul-30 16:33N 43°25' E 004°50'3 2.8
2015-Jul-30 15:33N 43°26' E 004°54'0 0.0
2015-Jul-30 14:34N 43°26' E 004°54'0 0.0
2015-Jul-30 13:34N 43°26' E 004°54'0 0.0
2015-Jul-30 12:34N 43°26' E 004°54'0 0.0
2015-Jul-30 11:33N 43°26' E 004°54'0 0.0
2015-Jul-30 10:34N 43°26' E 004°54'1 0.8
2015-Jul-30 09:33N 43°25' E 004°53'1 0.7
2015-Jul-30 08:34N 43°26' E 004°54'0 0.1
2015-Jul-30 07:33N 43°26' E 004°54'0 0.0
2015-Jul-30 06:34N 43°26' E 004°54'0 0.0
2015-Jul-30 05:34N 43°26' E 004°54'0 0.0
2015-Jul-30 04:34N 43°26' E 004°54'0 0.0
2015-Jul-30 03:34N 43°26' E 004°54'0 0.0
2015-Jul-30 02:34N 43°26' E 004°54'0 0.0
2015-Jul-30 01:34N 43°26' E 004°54'0 0.0
2015-Jul-30 00:34N 43°26' E 004°54'0 0.0
2015-Jul-29 23:34N 43°26' E 004°54'0 0.0
2015-Jul-29 22:33N 43°26' E 004°54'0 0.0
2015-Jul-29 21:34N 43°26' E 004°54'1 0.6
2015-Jul-29 20:33N 43°25' E 004°53'1 0.8
2015-Jul-29 19:33N 43°24' E 004°53'1 1.3
2015-Jul-29 18:34N 43°26' E 004°54'0 0.0
2015-Jul-29 17:34N 43°26' E 004°54'0 0.0
2015-Jul-29 16:34N 43°26' E 004°54'1 1.2
2015-Jul-29 15:33N 43°25' E 004°52'2 2.4
2015-Jul-29 14:33N 43°24' E 004°55'2 2.0
2015-Jul-29 13:34N 43°26' E 004°54'0 0.0
2015-Jul-29 12:34N 43°26' E 004°54'0 0.0
2015-Jul-29 11:34N 43°26' E 004°54'0 0.0
2015-Jul-29 10:34N 43°26' E 004°54'0 0.0
2015-Jul-29 09:34N 43°26' E 004°54'0 0.0
2015-Jul-29 08:34N 43°26' E 004°54'0 0.0
2015-Jul-29 07:34N 43°26' E 004°54'0 0.0
2015-Jul-29 06:34N 43°26' E 004°54'1 1.3
2015-Jul-29 05:33N 43°24' E 004°53'1 1.3
2015-Jul-29 04:34N 43°26' E 004°54'0 0.0
2015-Jul-29 03:34N 43°26' E 004°54'0 0.0
2015-Jul-29 02:34N 43°26' E 004°54'0 0.0
2015-Jul-29 01:34N 43°26' E 004°54'0 0.0
2015-Jul-29 00:34N 43°26' E 004°54'0 0.0
2015-Jul-28 23:34N 43°26' E 004°54'0 0.0
2015-Jul-28 22:33N 43°26' E 004°54'0 0.0
2015-Jul-28 21:34N 43°26' E 004°54'0 0.0
2015-Jul-28 20:34N 43°26' E 004°54'1 1.0
2015-Jul-28 19:33N 43°25' E 004°53'1 1.1
2015-Jul-28 18:34N 43°26' E 004°54'0 0.0
2015-Jul-28 17:33N 43°26' E 004°54'1 1.3
2015-Jul-28 16:34N 43°24' E 004°53'1 0.7
2015-Jul-28 15:34N 43°25' E 004°53'1 0.7
2015-Jul-28 14:34N 43°26' E 004°54'0 0.0
2015-Jul-28 13:33N 43°26' E 004°54'0 0.0
2015-Jul-28 12:34N 43°26' E 004°54'1 1.1
2015-Jul-28 11:33N 43°25' E 004°53'1 1.1
2015-Jul-28 10:34N 43°26' E 004°54'0 0.0
2015-Jul-28 09:33N 43°26' E 004°54'0 0.0
2015-Jul-28 08:34N 43°26' E 004°54'0 0.0
2015-Jul-28 07:34N 43°26' E 004°54'0 0.0
2015-Jul-28 06:33N 43°26' E 004°54'0 0.0
2015-Jul-28 05:34N 43°26' E 004°54'0 0.0
2015-Jul-28 04:33N 43°26' E 004°54'0 0.0
2015-Jul-28 03:34N 43°26' E 004°54'0 0.0
2015-Jul-28 02:34N 43°26' E 004°54'0 0.0
2015-Jul-28 01:33N 43°26' E 004°54'1 1.2
2015-Jul-28 00:33N 43°26' E 004°52'1 1.2
2015-Jul-27 23:34N 43°26' E 004°54'1 1.1
2015-Jul-27 22:34N 43°25' E 004°53'2 2.4
2015-Jul-27 21:33N 43°24' E 004°56'3 2.6
2015-Jul-27 20:34N 43°26' E 004°54'0 0.0
2015-Jul-27 19:34N 43°26' E 004°54'0 0.0
2015-Jul-27 18:33N 43°26' E 004°54'0 0.0
2015-Jul-27 17:34N 43°26' E 004°54'0 0.0
2015-Jul-27 16:33N 43°26' E 004°54'0 0.0
2015-Jul-27 15:34N 43°26' E 004°54'0 0.0
2015-Jul-27 14:33N 43°26' E 004°54'0 0.0
2015-Jul-27 13:33N 43°26' E 004°54'0 0.0
2015-Jul-27 12:34N 43°26' E 004°54'0 0.0
2015-Jul-27 11:34N 43°26' E 004°54'0 0.0
2015-Jul-27 10:34N 43°26' E 004°54'3 2.9
2015-Jul-27 09:33N 43°24' E 004°51'3 2.9
2015-Jul-27 08:33N 43°26' E 004°54'0 0.0
2015-Jul-27 07:33N 43°26' E 004°54'1 0.8
2015-Jul-27 06:33N 43°25' E 004°53'1 0.5
2015-Jul-27 05:33N 43°25' E 004°53'1 1.2
2015-Jul-27 04:33N 43°26' E 004°54'0 0.0
2015-Jul-27 03:34N 43°26' E 004°54'0 0.0
2015-Jul-27 02:33N 43°26' E 004°54'0 0.0
2015-Jul-27 01:33N 43°26' E 004°54'0 0.1
2015-Jul-27 00:33N 43°26' E 004°54'0 0.1
2015-Jul-26 23:34N 43°26' E 004°54'3 2.8
2015-Jul-26 22:33N 43°24' E 004°51'3 2.8
2015-Jul-26 21:33N 43°26' E 004°54'0 0.0
2015-Jul-26 20:33N 43°26' E 004°54'0 0.0
2015-Jul-26 19:33N 43°26' E 004°54'0 0.0
2015-Jul-26 18:33N 43°26' E 004°54'0 0.0
2015-Jul-26 17:33N 43°26' E 004°54'0 0.0
2015-Jul-26 16:34N 43°26' E 004°54'0 0.0
2015-Jul-26 15:33N 43°26' E 004°54'0 0.0
2015-Jul-26 14:33N 43°26' E 004°54'0 0.0
2015-Jul-26 13:33N 43°26' E 004°54'0 0.0
2015-Jul-26 12:33N 43°26' E 004°54'0 0.0
2015-Jul-26 11:33N 43°26' E 004°54'3 2.8
2015-Jul-26 10:33N 43°24' E 004°51'2 1.5
2015-Jul-26 09:33N 43°24' E 004°53'1 1.4
2015-Jul-26 08:33N 43°25' E 004°52'1 1.1
2015-Jul-26 07:34N 43°26' E 004°52'0 0.1
2015-Jul-26 06:33N 43°26' E 004°52'2 1.9
2015-Jul-26 05:33N 43°26' E 004°54'0 0.0
2015-Jul-26 04:33N 43°26' E 004°54'3 2.7
2015-Jul-26 03:34N 43°25' E 004°50'1 0.6
2015-Jul-26 02:33N 43°25' E 004°51'2 2.3
2015-Jul-26 01:34N 43°26' E 004°54'0 0.0
2015-Jul-26 00:34N 43°26' E 004°54'3 2.5
2015-Jul-25 23:33N 43°25' E 004°51'2 1.7
2015-Jul-25 22:33N 43°25' E 004°53'1 1.2
2015-Jul-25 21:33N 43°26' E 004°54'0 0.0
2015-Jul-25 20:33N 43°26' E 004°54'0 0.0
2015-Jul-25 19:33N 43°26' E 004°54'0 0.0
2015-Jul-25 18:33N 43°26' E 004°54'0 0.0
2015-Jul-25 17:33N 43°26' E 004°54'0 0.0
2015-Jul-25 16:33N 43°26' E 004°54'0 0.0
2015-Jul-25 15:33N 43°26' E 004°54'0 0.0
2015-Jul-25 14:33N 43°26' E 004°54'0 0.0
2015-Jul-25 13:33N 43°26' E 004°54'0 0.0
2015-Jul-25 12:33N 43°26' E 004°54'0 0.0
2015-Jul-25 11:33N 43°26' E 004°54'0 0.0
2015-Jul-25 10:33N 43°26' E 004°54'0 0.0
2015-Jul-25 09:33N 43°26' E 004°54'0 0.0
2015-Jul-25 08:33N 43°26' E 004°54'0 0.0
2015-Jul-25 07:33N 43°26' E 004°54'1 1.0
2015-Jul-25 06:34N 43°25' E 004°53'5 4.5
2015-Jul-25 05:33N 43°23' E 004°58'1 1.0
2015-Jul-25 04:33N 43°24' E 004°59'0 0.0
2015-Jul-25 03:33N 43°24' E 004°59'0 0.0
2015-Jul-25 02:33N 43°24' E 004°59'0 0.0
2015-Jul-25 01:33N 43°24' E 004°59'0 0.0
2015-Jul-25 00:33N 43°24' E 004°59'0 0.0
2015-Jul-24 23:33N 43°24' E 004°59'0 0.0
2015-Jul-24 22:33N 43°24' E 004°59'0 0.0
2015-Jul-24 21:33N 43°24' E 004°59'0 0.0
2015-Jul-24 20:33N 43°24' E 004°59'0 0.0
2015-Jul-24 19:33N 43°24' E 004°59'0 0.0
2015-Jul-24 18:33N 43°24' E 004°59'0 0.0
2015-Jul-24 17:33N 43°24' E 004°59'0 0.0
2015-Jul-24 16:33N 43°24' E 004°59'0 0.0
2015-Jul-24 15:33N 43°24' E 004°59'0 0.0
2015-Jul-24 14:33N 43°24' E 004°59'0 0.0
2015-Jul-24 13:33N 43°24' E 004°59'0 0.0
2015-Jul-24 12:33N 43°24' E 004°59'0 0.0
2015-Jul-24 11:33N 43°24' E 004°59'0 0.0
2015-Jul-24 10:33N 43°24' E 004°59'0 0.0
2015-Jul-24 09:33N 43°24' E 004°59'0 0.0
2015-Jul-24 08:33N 43°24' E 004°59'0 0.0
2015-Jul-24 07:33N 43°24' E 004°59'0 0.0
2015-Jul-24 06:33N 43°24' E 004°59'1 0.7
2015-Jul-24 05:33N 43°23' E 004°59'1 0.7
2015-Jul-24 04:33N 43°24' E 004°59'0 0.0
2015-Jul-24 03:33N 43°24' E 004°59'0 0.0
2015-Jul-24 02:33N 43°24' E 004°59'0 0.0
2015-Jul-24 01:33N 43°24' E 004°59'4 4.3
2015-Jul-24 00:33N 43°25' E 004°53'4 4.3
2015-Jul-23 23:33N 43°24' E 004°59'0 0.0
2015-Jul-23 22:33N 43°24' E 004°59'0 0.0
2015-Jul-23 21:33N 43°24' E 004°59'0 0.0
2015-Jul-23 20:33N 43°24' E 004°59'0 0.0
2015-Jul-23 19:33N 43°24' E 004°59'0 0.0
2015-Jul-23 18:33N 43°24' E 004°59'0 0.0
2015-Jul-23 17:33N 43°24' E 004°59'0 0.0
2015-Jul-23 16:33N 43°24' E 004°59'3 3.2
2015-Jul-23 15:33N 43°24' E 004°55'0 0.3
2015-Jul-23 14:33N 43°24' E 004°55'3 3.0
2015-Jul-23 13:33N 43°24' E 004°59'0 0.1
2015-Jul-23 12:33N 43°24' E 004°59'0 0.1
2015-Jul-23 11:33N 43°24' E 004°59'0 0.0
2015-Jul-23 10:33N 43°24' E 004°59'0 0.0
2015-Jul-23 09:33N 43°24' E 004°59'0 0.0
2015-Jul-23 08:33N 43°24' E 004°59'0 0.0
2015-Jul-23 07:33N 43°24' E 004°59'0 0.0
2015-Jul-23 06:33N 43°24' E 004°59'0 0.1
2015-Jul-23 05:33N 43°24' E 004°59'0 0.1
2015-Jul-23 04:33N 43°24' E 004°59'0 0.0
2015-Jul-23 03:33N 43°24' E 004°59'0 0.0
2015-Jul-23 02:33N 43°24' E 004°59'0 0.0
2015-Jul-23 01:33N 43°24' E 004°59'0 0.0
2015-Jul-23 00:33N 43°24' E 004°59'0 0.0
2015-Jul-22 23:33N 43°24' E 004°59'0 0.0
2015-Jul-22 22:33N 43°24' E 004°59'0 0.0
2015-Jul-22 21:33N 43°24' E 004°59'0 0.0
2015-Jul-22 20:33N 43°24' E 004°59'0 0.0
2015-Jul-22 19:33N 43°24' E 004°59'0 0.0
2015-Jul-22 18:33N 43°24' E 004°59'0 0.0
2015-Jul-22 17:33N 43°24' E 004°59'0 0.0
2015-Jul-22 16:33N 43°24' E 004°59'0 0.0
2015-Jul-22 15:33N 43°24' E 004°59'2 1.8
2015-Jul-22 14:33N 43°24' E 004°57'3 2.5
2015-Jul-22 13:33N 43°24' E 004°53'4 3.6
2015-Jul-22 12:33N 43°23' E 004°58'1 0.9
2015-Jul-22 11:34N 43°24' E 004°59'  
Track history (hours):
 
Tides and Currents Weather Stations Pressure Air Temp Water Temp Dewpoint Dewpoint Depression Visibility Wind Speed Wind Dir Waves Ship Positions

Marseillais 6

Last reported at 2015-Aug-01 11:33 UTC. Time now 2015-Aug-01 11:53 UTC.
Position N 43°26' E 004°54'.

Length 35 m; draft 5 m.

Type: Tug. MMSI: 227016900.

Date/timePositionNaut miles runAvg speedWind from/ knotsBaromVisibWave heightAir tempDewpointWater temp
2015-Aug-01 11:33N 43°26' E 004°54'0 0.0
2015-Aug-01 10:33N 43°26' E 004°54'0 0.0
2015-Aug-01 09:33N 43°26' E 004°54'1 0.6
2015-Aug-01 08:34N 43°25' E 004°53'3 3.4
2015-Aug-01 07:34N 43°23' E 004°49'4 4.1
2015-Aug-01 06:33N 43°24' E 004°55'2 2.2
2015-Aug-01 05:33N 43°26' E 004°54'0 0.0
2015-Aug-01 04:33N 43°26' E 004°54'0 0.0
2015-Aug-01 03:34N 43°26' E 004°54'1 0.8
2015-Aug-01 02:34N 43°25' E 004°53'1 0.8
2015-Aug-01 01:33N 43°26' E 004°54'0 0.0
2015-Aug-01 00:33N 43°26' E 004°54'0 0.0
2015-Jul-31 23:33N 43°26' E 004°54'0 0.1
2015-Jul-31 22:34N 43°26' E 004°54'0 0.0
2015-Jul-31 21:33N 43°26' E 004°54'0 0.0
2015-Jul-31 20:33N 43°26' E 004°54'0 0.0
2015-Jul-31 19:34N 43°26' E 004°54'0 0.0
2015-Jul-31 18:33N 43°26' E 004°54'0 0.3
2015-Jul-31 17:34N 43°25' E 004°54'5 5.4
2015-Jul-31 16:33N 43°24' E 005°01'3 2.8
2015-Jul-31 15:34N 43°24' E 004°57'3 3.1
2015-Jul-31 14:33N 43°26' E 004°54'0 0.0
2015-Jul-31 13:33N 43°26' E 004°54'0 0.0
2015-Jul-31 12:33N 43°26' E 004°54'0 0.0
2015-Jul-31 11:33N 43°26' E 004°54'0 0.0
2015-Jul-31 10:33N 43°26' E 004°54'0 0.0
2015-Jul-31 09:34N 43°26' E 004°54'0 0.0
2015-Jul-31 08:33N 43°26' E 004°54'0 0.0
2015-Jul-31 07:34N 43°26' E 004°54'0 0.0
2015-Jul-31 06:34N 43°26' E 004°54'0 0.0
2015-Jul-31 05:33N 43°26' E 004°54'0 0.0
2015-Jul-31 04:34N 43°26' E 004°54'0 0.0
2015-Jul-31 03:34N 43°26' E 004°54'0 0.4
2015-Jul-31 02:33N 43°26' E 004°53'0 0.4
2015-Jul-31 01:33N 43°26' E 004°54'0 0.0
2015-Jul-31 00:34N 43°26' E 004°54'0 0.0
2015-Jul-30 23:33N 43°26' E 004°54'0 0.0
2015-Jul-30 22:34N 43°26' E 004°54'0 0.0
2015-Jul-30 21:34N 43°26' E 004°54'2 2.4
2015-Jul-30 20:33N 43°25' E 004°51'2 2.4
2015-Jul-30 19:33N 43°26' E 004°54'0 0.0
2015-Jul-30 18:33N 43°26' E 004°54'1 0.6
2015-Jul-30 17:33N 43°25' E 004°53'2 2.3
2015-Jul-30 16:33N 43°25' E 004°50'3 2.8
2015-Jul-30 15:33N 43°26' E 004°54'0 0.0
2015-Jul-30 14:34N 43°26' E 004°54'0 0.0
2015-Jul-30 13:34N 43°26' E 004°54'0 0.0
2015-Jul-30 12:34N 43°26' E 004°54'0 0.0
2015-Jul-30 11:33N 43°26' E 004°54'0 0.0
2015-Jul-30 10:34N 43°26' E 004°54'1 0.8
2015-Jul-30 09:33N 43°25' E 004°53'1 0.7
2015-Jul-30 08:34N 43°26' E 004°54'0 0.1
2015-Jul-30 07:33N 43°26' E 004°54'0 0.0
2015-Jul-30 06:34N 43°26' E 004°54'0 0.0
2015-Jul-30 05:34N 43°26' E 004°54'0 0.0
2015-Jul-30 04:34N 43°26' E 004°54'0 0.0
2015-Jul-30 03:34N 43°26' E 004°54'0 0.0
2015-Jul-30 02:34N 43°26' E 004°54'0 0.0
2015-Jul-30 01:34N 43°26' E 004°54'0 0.0
2015-Jul-30 00:34N 43°26' E 004°54'0 0.0
2015-Jul-29 23:34N 43°26' E 004°54'0 0.0
2015-Jul-29 22:33N 43°26' E 004°54'0 0.0
2015-Jul-29 21:34N 43°26' E 004°54'1 0.6
2015-Jul-29 20:33N 43°25' E 004°53'1 0.8
2015-Jul-29 19:33N 43°24' E 004°53'1 1.3
2015-Jul-29 18:34N 43°26' E 004°54'0 0.0
2015-Jul-29 17:34N 43°26' E 004°54'0 0.0
2015-Jul-29 16:34N 43°26' E 004°54'1 1.2
2015-Jul-29 15:33N 43°25' E 004°52'2 2.4
2015-Jul-29 14:33N 43°24' E 004°55'2 2.0
2015-Jul-29 13:34N 43°26' E 004°54'0 0.0
2015-Jul-29 12:34N 43°26' E 004°54'0 0.0
2015-Jul-29 11:34N 43°26' E 004°54'0 0.0
2015-Jul-29 10:34N 43°26' E 004°54'0 0.0
2015-Jul-29 09:34N 43°26' E 004°54'0 0.0
2015-Jul-29 08:34N 43°26' E 004°54'0 0.0
2015-Jul-29 07:34N 43°26' E 004°54'0 0.0
2015-Jul-29 06:34N 43°26' E 004°54'1 1.3
2015-Jul-29 05:33N 43°24' E 004°53'1 1.3
2015-Jul-29 04:34N 43°26' E 004°54'0 0.0
2015-Jul-29 03:34N 43°26' E 004°54'0 0.0
2015-Jul-29 02:34N 43°26' E 004°54'0 0.0
2015-Jul-29 01:34N 43°26' E 004°54'0 0.0
2015-Jul-29 00:34N 43°26' E 004°54'0 0.0
2015-Jul-28 23:34N 43°26' E 004°54'0 0.0
2015-Jul-28 22:33N 43°26' E 004°54'0 0.0
2015-Jul-28 21:34N 43°26' E 004°54'0 0.0
2015-Jul-28 20:34N 43°26' E 004°54'1 1.0
2015-Jul-28 19:33N 43°25' E 004°53'1 1.1
2015-Jul-28 18:34N 43°26' E 004°54'0 0.0
2015-Jul-28 17:33N 43°26' E 004°54'1 1.3
2015-Jul-28 16:34N 43°24' E 004°53'1 0.7
2015-Jul-28 15:34N 43°25' E 004°53'1 0.7
2015-Jul-28 14:34N 43°26' E 004°54'0 0.0
2015-Jul-28 13:33N 43°26' E 004°54'0 0.0
2015-Jul-28 12:34N 43°26' E 004°54'1 1.1
2015-Jul-28 11:33N 43°25' E 004°53'1 1.1
2015-Jul-28 10:34N 43°26' E 004°54'0 0.0
2015-Jul-28 09:33N 43°26' E 004°54'0 0.0
2015-Jul-28 08:34N 43°26' E 004°54'0 0.0
2015-Jul-28 07:34N 43°26' E 004°54'0 0.0
2015-Jul-28 06:33N 43°26' E 004°54'0 0.0
2015-Jul-28 05:34N 43°26' E 004°54'0 0.0
2015-Jul-28 04:33N 43°26' E 004°54'0 0.0
2015-Jul-28 03:34N 43°26' E 004°54'0 0.0
2015-Jul-28 02:34N 43°26' E 004°54'0 0.0
2015-Jul-28 01:33N 43°26' E 004°54'1 1.2
2015-Jul-28 00:33N 43°26' E 004°52'1 1.2
2015-Jul-27 23:34N 43°26' E 004°54'1 1.1
2015-Jul-27 22:34N 43°25' E 004°53'2 2.4
2015-Jul-27 21:33N 43°24' E 004°56'3 2.6
2015-Jul-27 20:34N 43°26' E 004°54'0 0.0
2015-Jul-27 19:34N 43°26' E 004°54'0 0.0
2015-Jul-27 18:33N 43°26' E 004°54'0 0.0
2015-Jul-27 17:34N 43°26' E 004°54'0 0.0
2015-Jul-27 16:33N 43°26' E 004°54'0 0.0
2015-Jul-27 15:34N 43°26' E 004°54'0 0.0
2015-Jul-27 14:33N 43°26' E 004°54'0 0.0
2015-Jul-27 13:33N 43°26' E 004°54'0 0.0
2015-Jul-27 12:34N 43°26' E 004°54'0 0.0
2015-Jul-27 11:34N 43°26' E 004°54'0 0.0
2015-Jul-27 10:34N 43°26' E 004°54'3 2.9
2015-Jul-27 09:33N 43°24' E 004°51'3 2.9
2015-Jul-27 08:33N 43°26' E 004°54'0 0.0
2015-Jul-27 07:33N 43°26' E 004°54'1 0.8
2015-Jul-27 06:33N 43°25' E 004°53'1 0.5
2015-Jul-27 05:33N 43°25' E 004°53'1 1.2
2015-Jul-27 04:33N 43°26' E 004°54'0 0.0
2015-Jul-27 03:34N 43°26' E 004°54'0 0.0
2015-Jul-27 02:33N 43°26' E 004°54'0 0.0
2015-Jul-27 01:33N 43°26' E 004°54'0 0.1
2015-Jul-27 00:33N 43°26' E 004°54'0 0.1
2015-Jul-26 23:34N 43°26' E 004°54'3 2.8
2015-Jul-26 22:33N 43°24' E 004°51'3 2.8
2015-Jul-26 21:33N 43°26' E 004°54'0 0.0
2015-Jul-26 20:33N 43°26' E 004°54'0 0.0
2015-Jul-26 19:33N 43°26' E 004°54'0 0.0
2015-Jul-26 18:33N 43°26' E 004°54'0 0.0
2015-Jul-26 17:33N 43°26' E 004°54'0 0.0
2015-Jul-26 16:34N 43°26' E 004°54'0 0.0
2015-Jul-26 15:33N 43°26' E 004°54'0 0.0
2015-Jul-26 14:33N 43°26' E 004°54'0 0.0
2015-Jul-26 13:33N 43°26' E 004°54'0 0.0
2015-Jul-26 12:33N 43°26' E 004°54'0 0.0
2015-Jul-26 11:33N 43°26' E 004°54'3 2.8
2015-Jul-26 10:33N 43°24' E 004°51'2 1.5
2015-Jul-26 09:33N 43°24' E 004°53'1 1.4
2015-Jul-26 08:33N 43°25' E 004°52'1 1.1
2015-Jul-26 07:34N 43°26' E 004°52'0 0.1
2015-Jul-26 06:33N 43°26' E 004°52'2 1.9
2015-Jul-26 05:33N 43°26' E 004°54'0 0.0
2015-Jul-26 04:33N 43°26' E 004°54'3 2.7
2015-Jul-26 03:34N 43°25' E 004°50'1 0.6
2015-Jul-26 02:33N 43°25' E 004°51'2 2.3
2015-Jul-26 01:34N 43°26' E 004°54'0 0.0
2015-Jul-26 00:34N 43°26' E 004°54'3 2.5
2015-Jul-25 23:33N 43°25' E 004°51'2 1.7
2015-Jul-25 22:33N 43°25' E 004°53'1 1.2
2015-Jul-25 21:33N 43°26' E 004°54'0 0.0
2015-Jul-25 20:33N 43°26' E 004°54'0 0.0
2015-Jul-25 19:33N 43°26' E 004°54'0 0.0
2015-Jul-25 18:33N 43°26' E 004°54'0 0.0
2015-Jul-25 17:33N 43°26' E 004°54'0 0.0
2015-Jul-25 16:33N 43°26' E 004°54'0 0.0
2015-Jul-25 15:33N 43°26' E 004°54'0 0.0
2015-Jul-25 14:33N 43°26' E 004°54'0 0.0
2015-Jul-25 13:33N 43°26' E 004°54'0 0.0
2015-Jul-25 12:33N 43°26' E 004°54'0 0.0
2015-Jul-25 11:33N 43°26' E 004°54'0 0.0
2015-Jul-25 10:33N 43°26' E 004°54'0 0.0
2015-Jul-25 09:33N 43°26' E 004°54'0 0.0
2015-Jul-25 08:33N 43°26' E 004°54'0 0.0
2015-Jul-25 07:33N 43°26' E 004°54'1 1.0
2015-Jul-25 06:34N 43°25' E 004°53'5 4.5
2015-Jul-25 05:33N 43°23' E 004°58'1 1.0
2015-Jul-25 04:33N 43°24' E 004°59'0 0.0
2015-Jul-25 03:33N 43°24' E 004°59'0 0.0
2015-Jul-25 02:33N 43°24' E 004°59'0 0.0
2015-Jul-25 01:33N 43°24' E 004°59'0 0.0
2015-Jul-25 00:33N 43°24' E 004°59'0 0.0
2015-Jul-24 23:33N 43°24' E 004°59'0 0.0
2015-Jul-24 22:33N 43°24' E 004°59'0 0.0
2015-Jul-24 21:33N 43°24' E 004°59'0 0.0
2015-Jul-24 20:33N 43°24' E 004°59'0 0.0
2015-Jul-24 19:33N 43°24' E 004°59'0 0.0
2015-Jul-24 18:33N 43°24' E 004°59'0 0.0
2015-Jul-24 17:33N 43°24' E 004°59'0 0.0
2015-Jul-24 16:33N 43°24' E 004°59'0 0.0
2015-Jul-24 15:33N 43°24' E 004°59'0 0.0
2015-Jul-24 14:33N 43°24' E 004°59'0 0.0
2015-Jul-24 13:33N 43°24' E 004°59'0 0.0
2015-Jul-24 12:33N 43°24' E 004°59'0 0.0
2015-Jul-24 11:33N 43°24' E 004°59'0 0.0
2015-Jul-24 10:33N 43°24' E 004°59'0 0.0
2015-Jul-24 09:33N 43°24' E 004°59'0 0.0
2015-Jul-24 08:33N 43°24' E 004°59'0 0.0
2015-Jul-24 07:33N 43°24' E 004°59'0 0.0
2015-Jul-24 06:33N 43°24' E 004°59'1 0.7
2015-Jul-24 05:33N 43°23' E 004°59'1 0.7
2015-Jul-24 04:33N 43°24' E 004°59'0 0.0
2015-Jul-24 03:33N 43°24' E 004°59'0 0.0
2015-Jul-24 02:33N 43°24' E 004°59'0 0.0
2015-Jul-24 01:33N 43°24' E 004°59'4 4.3
2015-Jul-24 00:33N 43°25' E 004°53'4 4.3
2015-Jul-23 23:33N 43°24' E 004°59'0 0.0
2015-Jul-23 22:33N 43°24' E 004°59'0 0.0
2015-Jul-23 21:33N 43°24' E 004°59'0 0.0
2015-Jul-23 20:33N 43°24' E 004°59'0 0.0
2015-Jul-23 19:33N 43°24' E 004°59'0 0.0
2015-Jul-23 18:33N 43°24' E 004°59'0 0.0
2015-Jul-23 17:33N 43°24' E 004°59'0 0.0
2015-Jul-23 16:33N 43°24' E 004°59'3 3.2
2015-Jul-23 15:33N 43°24' E 004°55'0 0.3
2015-Jul-23 14:33N 43°24' E 004°55'3 3.0
2015-Jul-23 13:33N 43°24' E 004°59'0 0.1
2015-Jul-23 12:33N 43°24' E 004°59'0 0.1
2015-Jul-23 11:33N 43°24' E 004°59'0 0.0
2015-Jul-23 10:33N 43°24' E 004°59'0 0.0
2015-Jul-23 09:33N 43°24' E 004°59'0 0.0
2015-Jul-23 08:33N 43°24' E 004°59'0 0.0
2015-Jul-23 07:33N 43°24' E 004°59'0 0.0
2015-Jul-23 06:33N 43°24' E 004°59'0 0.1
2015-Jul-23 05:33N 43°24' E 004°59'0 0.1
2015-Jul-23 04:33N 43°24' E 004°59'0 0.0
2015-Jul-23 03:33N 43°24' E 004°59'0 0.0
2015-Jul-23 02:33N 43°24' E 004°59'0 0.0
2015-Jul-23 01:33N 43°24' E 004°59'0 0.0
2015-Jul-23 00:33N 43°24' E 004°59'0 0.0
2015-Jul-22 23:33N 43°24' E 004°59'0 0.0
2015-Jul-22 22:33N 43°24' E 004°59'0 0.0
2015-Jul-22 21:33N 43°24' E 004°59'0 0.0
2015-Jul-22 20:33N 43°24' E 004°59'0 0.0
2015-Jul-22 19:33N 43°24' E 004°59'0 0.0
2015-Jul-22 18:33N 43°24' E 004°59'0 0.0
2015-Jul-22 17:33N 43°24' E 004°59'0 0.0
2015-Jul-22 16:33N 43°24' E 004°59'0 0.0
2015-Jul-22 15:33N 43°24' E 004°59'2 1.8
2015-Jul-22 14:33N 43°24' E 004°57'3 2.5
2015-Jul-22 13:33N 43°24' E 004°53'4 3.6
2015-Jul-22 12:33N 43°23' E 004°58'1 0.9
2015-Jul-22 11:34N 43°24' E 004°59'  

Dump ship's entire track history